Time;durP1;ratioP1;P1;durP2;ratioP2;P2;SDS_P1;SDS_P2;PMS_P1;PMS_P2;Temp;Humidity;BMP_temperature;BMP_pressure;BME280_temperature;BME280_humidity;BME280_pressure;Samples;Min_cycle;Max_cycle;Signal;HPM_P1;HPM_P2
2023/09/12 00:00:09;;;;;;;33.15;15.35;;;;;;;;;;4945612;28;20154;-64
2023/09/12 00:02:36;;;;;;;28.38;15.00;;;;;;;;;;4975755;28;20290;-64
2023/09/12 00:05:03;;;;;;;26.85;14.80;;;;;;;;;;4978097;28;20062;-63
2023/09/12 00:07:30;;;;;;;27.60;14.87;;;;;;;;;;4982626;28;20058;-63
2023/09/12 00:09:57;;;;;;;26.15;14.68;;;;;;;;;;4988914;28;20301;-62
2023/09/12 00:12:26;;;;;;;31.52;14.75;;;;;;;;;;4975309;28;20084;-64
2023/09/12 00:14:53;;;;;;;29.42;14.90;;;;;;;;;;4995434;28;20145;-63
2023/09/12 00:17:22;;;;;;;34.53;16.13;;;;;;;;;;4983103;28;20129;-66
2023/09/12 00:19:48;;;;;;;;;;;;;;;;;;4982456;28;20144;-63
2023/09/12 00:22:15;;;;;;;26.15;13.50;;;;;;;;;;4978230;28;19921;-66
2023/09/12 00:24:44;;;;;;;30.77;15.77;;;;;;;;;;4977701;28;20107;-66
2023/09/12 00:27:10;;;;;;;31.48;15.32;;;;;;;;;;4979711;28;20064;-66
2023/09/12 00:29:40;;;;;;;28.52;15.57;;;;;;;;;;4980463;28;20062;-68
2023/09/12 00:32:06;;;;;;;30.88;15.45;;;;;;;;;;4966515;28;20066;-64
2023/09/12 00:34:34;;;;;;;31.75;16.08;;;;;;;;;;4972310;28;20116;-66
2023/09/12 00:37:01;;;;;;;28.45;14.50;;;;;;;;;;4978749;28;20145;-65
2023/09/12 00:39:27;;;;;;;30.80;15.57;;;;;;;;;;4982800;28;20157;-67
2023/09/12 00:41:54;;;;;;;27.83;15.02;;;;;;;;;;4981241;28;20074;-68
2023/09/12 00:44:21;;;;;;;28.83;14.90;;;;;;;;;;4975240;28;20058;-65
2023/09/12 00:46:50;;;;;;;30.05;15.10;;;;;;;;;;4978295;28;20282;-66
2023/09/12 00:49:18;;;;;;;34.72;15.35;;;;;;;;;;4995585;28;20050;-65
2023/09/12 00:51:47;;;;;;;30.45;14.95;;;;;;;;;;4983255;28;20131;-66
2023/09/12 00:54:14;;;;;;;26.02;14.98;;;;;;;;;;4982232;28;20074;-67
2023/09/12 00:56:41;;;;;;;31.98;15.60;;;;;;;;;;4992967;28;21658;-66
2023/09/12 00:59:08;;;;;;;34.25;15.13;;;;;;;;;;5000422;28;20062;-67
2023/09/12 01:01:35;;;;;;;28.00;14.77;;;;;;;;;;5009419;28;20156;-66
2023/09/12 01:04:03;;;;;;;27.65;15.00;;;;;;;;;;5003041;28;20284;-65
2023/09/12 01:06:30;;;;;;;37.58;15.70;;;;;;;;;;4992515;28;20082;-65
2023/09/12 01:08:59;;;;;;;29.63;15.50;;;;;;;;;;5003158;28;20053;-66
2023/09/12 01:11:26;;;;;;;29.15;15.10;;;;;;;;;;5003168;28;20054;-66
2023/09/12 01:13:52;;;;;;;31.52;15.75;;;;;;;;;;5020737;28;20131;-67
2023/09/12 01:16:19;;;;;;;36.30;15.70;;;;;;;;;;4994417;28;20042;-66
2023/09/12 01:18:46;;;;;;;28.42;15.50;;;;;;;;;;5004925;28;20135;-66
2023/09/12 01:21:44;;;;;;;29.17;16.05;;;;;;;;;;5004417;28;20165;-66
2023/09/12 01:24:42;;;;;;;32.42;15.57;;;;;;;;;;4959025;28;20086;-66
2023/09/12 01:27:24;;;;;;;;;;;;;;;;;;4982197;28;20205;-65
2023/09/12 01:29:57;;;;;;;31.83;15.30;;;;;;;;;;4984060;28;19951;-65
2023/09/12 01:32:23;;;;;;;32.25;16.55;;;;;;;;;;4978478;28;20046;-65
2023/09/12 01:34:50;;;;;;;30.27;16.52;;;;;;;;;;4946028;28;20082;-65
2023/09/12 01:37:17;;;;;;;34.40;16.38;;;;;;;;;;4984202;28;20066;-65
2023/09/12 01:39:43;;;;;;;30.33;15.57;;;;;;;;;;4984506;28;20050;-65
2023/09/12 01:42:14;;;;;;;33.53;15.82;;;;;;;;;;4984039;28;20066;-65
2023/09/12 01:44:43;;;;;;;29.55;14.70;;;;;;;;;;4962386;28;20062;-66
2023/09/12 01:47:12;;;;;;;28.08;15.35;;;;;;;;;;4980780;28;20083;-65
2023/09/12 01:49:42;;;;;;;32.78;16.35;;;;;;;;;;4986785;28;20066;-66
2023/09/12 01:52:09;;;;;;;29.23;15.77;;;;;;;;;;4966723;28;20126;-65
2023/09/12 01:54:38;;;;;;;29.40;15.48;;;;;;;;;;4956660;28;20080;-65
2023/09/12 01:57:05;;;;;;;30.58;14.68;;;;;;;;;;4981340;28;20088;-65
2023/09/12 01:59:32;;;;;;;36.25;15.80;;;;;;;;;;4984745;28;20302;-66
2023/09/12 02:02:00;;;;;;;29.83;14.30;;;;;;;;;;4981295;28;20078;-66
2023/09/12 02:04:27;;;;;;;31.85;14.75;;;;;;;;;;4956790;28;20148;-66
2023/09/12 02:06:54;;;;;;;30.35;15.05;;;;;;;;;;5003417;28;20182;-66
2023/09/12 02:09:20;;;;;;;29.15;14.70;;;;;;;;;;4998104;28;20115;-67
2023/09/12 02:11:49;;;;;;;32.80;14.48;;;;;;;;;;5003042;28;20168;-65
2023/09/12 02:14:17;;;;;;;31.83;15.27;;;;;;;;;;4982525;28;20133;-67
2023/09/12 02:16:44;;;;;;;27.13;14.35;;;;;;;;;;5002684;28;20061;-65
2023/09/12 02:19:12;;;;;;;30.60;15.10;;;;;;;;;;5003633;28;20053;-65
2023/09/12 02:21:39;;;;;;;29.98;14.23;;;;;;;;;;5002698;28;20157;-67
2023/09/12 02:24:06;;;;;;;25.00;13.05;;;;;;;;;;4982265;28;20053;-66
2023/09/12 02:26:35;;;;;;;28.77;14.13;;;;;;;;;;4995889;28;20053;-64
2023/09/12 02:29:03;;;;;;;27.23;14.38;;;;;;;;;;4997386;28;20048;-65
2023/09/12 02:31:29;;;;;;;28.48;14.80;;;;;;;;;;4966609;28;20058;-66
2023/09/12 02:33:56;;;;;;;32.55;14.18;;;;;;;;;;4977598;28;20058;-65
2023/09/12 02:36:24;;;;;;;27.63;13.90;;;;;;;;;;4977559;28;20054;-66
2023/09/12 02:38:51;;;;;;;27.30;14.23;;;;;;;;;;5010462;28;20054;-64
2023/09/12 02:41:17;;;;;;;33.85;15.20;;;;;;;;;;5001537;28;20124;-66
2023/09/12 02:43:44;;;;;;;30.23;14.98;;;;;;;;;;4997882;28;20054;-66
2023/09/12 02:46:11;;;;;;;25.63;14.02;;;;;;;;;;4999817;28;20049;-66
2023/09/12 02:48:38;;;;;;;29.33;15.18;;;;;;;;;;4997497;28;21222;-66
2023/09/12 02:51:04;;;;;;;28.45;13.95;;;;;;;;;;5003461;28;20100;-65
2023/09/12 02:53:32;;;;;;;28.73;14.65;;;;;;;;;;5003061;28;20114;-65
2023/09/12 02:55:59;;;;;;;35.08;14.73;;;;;;;;;;4998797;28;20081;-66
2023/09/12 02:58:25;;;;;;;25.08;13.43;;;;;;;;;;4996776;28;20062;-66
2023/09/12 03:00:54;;;;;;;30.85;13.73;;;;;;;;;;4988987;28;20128;-66
2023/09/12 03:03:20;;;;;;;27.30;13.85;;;;;;;;;;4981482;28;20108;-66
2023/09/12 03:05:47;;;;;;;30.80;15.55;;;;;;;;;;4979933;28;20125;-64
2023/09/12 03:08:14;;;;;;;33.47;15.05;;;;;;;;;;4979929;28;20168;-65
2023/09/12 03:10:42;;;;;;;27.80;14.27;;;;;;;;;;4982107;28;20058;-65
2023/09/12 03:13:08;;;;;;;25.52;13.48;;;;;;;;;;4982216;28;20050;-66
2023/09/12 03:15:38;;;;;;;30.80;14.02;;;;;;;;;;4977686;28;20143;-65
2023/09/12 03:18:06;;;;;;;30.25;14.00;;;;;;;;;;4982548;28;20065;-66
2023/09/12 03:20:33;;;;;;;32.47;13.88;;;;;;;;;;4977858;28;20072;-67
2023/09/12 03:22:59;;;;;;;24.73;13.00;;;;;;;;;;4981654;28;20050;-64
2023/09/12 03:25:28;;;;;;;27.45;14.00;;;;;;;;;;4995650;28;20114;-67
2023/09/12 03:27:57;;;;;;;26.85;12.48;;;;;;;;;;4983803;28;20063;-65
2023/09/12 03:30:23;;;;;;;26.85;12.95;;;;;;;;;;4975739;28;20062;-66
2023/09/12 03:32:50;;;;;;;25.65;12.80;;;;;;;;;;4981776;28;20061;-66
2023/09/12 03:35:17;;;;;;;23.98;12.88;;;;;;;;;;4962032;28;20076;-65
2023/09/12 03:37:43;;;;;;;24.67;13.13;;;;;;;;;;4965758;28;20055;-66
2023/09/12 03:40:12;;;;;;;23.83;12.25;;;;;;;;;;4979820;28;20058;-65
2023/09/12 03:42:39;;;;;;;22.73;12.80;;;;;;;;;;4979903;28;20077;-66
2023/09/12 03:45:09;;;;;;;23.98;11.95;;;;;;;;;;4977954;28;20054;-66
2023/09/12 03:47:36;;;;;;;23.05;11.70;;;;;;;;;;4965738;28;20085;-67
2023/09/12 03:50:03;;;;;;;22.08;11.55;;;;;;;;;;4965199;28;20046;-67
2023/09/12 03:52:30;;;;;;;22.05;11.48;;;;;;;;;;4976724;28;20051;-65
2023/09/12 03:54:56;;;;;;;25.02;12.20;;;;;;;;;;4960348;28;20137;-67
2023/09/12 03:57:25;;;;;;;29.02;11.65;;;;;;;;;;4983287;28;20093;-67
2023/09/12 03:59:52;;;;;;;19.80;11.05;;;;;;;;;;4965087;28;20092;-68
2023/09/12 04:02:20;;;;;;;19.73;11.13;;;;;;;;;;4958216;28;20050;-66
2023/09/12 04:04:47;;;;;;;19.27;10.40;;;;;;;;;;4971240;28;20059;-66
2023/09/12 04:07:14;;;;;;;18.88;10.32;;;;;;;;;;4981987;28;20149;-66
2023/09/12 04:09:40;;;;;;;20.25;10.27;;;;;;;;;;4982203;28;20126;-65
2023/09/12 04:12:08;;;;;;;26.10;10.60;;;;;;;;;;4987196;28;20093;-67
2023/09/12 04:14:35;;;;;;;17.55;9.63;;;;;;;;;;4975047;28;20117;-66
2023/09/12 04:17:02;;;;;;;22.70;10.63;;;;;;;;;;4992702;28;20055;-66
2023/09/12 04:19:31;;;;;;;17.20;9.90;;;;;;;;;;4961132;28;20065;-66
2023/09/12 04:21:59;;;;;;;20.40;11.15;;;;;;;;;;4978240;28;20062;-66
2023/09/12 04:24:26;;;;;;;20.10;10.43;;;;;;;;;;4948901;28;20179;-65
2023/09/12 04:26:54;;;;;;;17.63;10.40;;;;;;;;;;4966028;28;20065;-65
2023/09/12 04:29:21;;;;;;;20.45;10.70;;;;;;;;;;4968266;28;20117;-66
2023/09/12 04:31:47;;;;;;;25.73;11.27;;;;;;;;;;4985943;28;20089;-67
2023/09/12 04:34:14;;;;;;;17.73;10.23;;;;;;;;;;4960212;28;20112;-66
2023/09/12 04:36:43;;;;;;;17.58;9.95;;;;;;;;;;4985757;28;20054;-65
2023/09/12 04:39:10;;;;;;;20.80;11.13;;;;;;;;;;4985160;28;20058;-65
2023/09/12 04:41:37;;;;;;;23.77;10.35;;;;;;;;;;4987850;28;20089;-65
2023/09/12 04:44:04;;;;;;;20.45;11.05;;;;;;;;;;4972328;28;20058;-65
2023/09/12 04:46:31;;;;;;;22.55;10.65;;;;;;;;;;4962403;28;20061;-65
2023/09/12 04:48:57;;;;;;;28.15;14.13;;;;;;;;;;4967114;28;20051;-66
2023/09/12 04:51:24;;;;;;;26.27;14.15;;;;;;;;;;4983887;28;20058;-65
2023/09/12 04:53:52;;;;;;;22.00;11.50;;;;;;;;;;4943951;28;20112;-66
2023/09/12 04:56:19;;;;;;;19.27;10.40;;;;;;;;;;4978988;28;20069;-66
2023/09/12 04:58:45;;;;;;;21.55;11.63;;;;;;;;;;4964827;28;20051;-66
2023/09/12 05:01:12;;;;;;;22.15;11.05;;;;;;;;;;4967971;28;20054;-67
2023/09/12 05:03:39;;;;;;;22.50;11.43;;;;;;;;;;4983875;28;20062;-66
2023/09/12 05:06:06;;;;;;;23.23;11.60;;;;;;;;;;4980354;28;20058;-67
2023/09/12 05:08:32;;;;;;;20.55;11.38;;;;;;;;;;4961267;28;20105;-67
2023/09/12 05:11:02;;;;;;;20.42;11.05;;;;;;;;;;4984083;28;20124;-66
2023/09/12 05:13:29;;;;;;;23.60;10.90;;;;;;;;;;4984015;28;20144;-66
2023/09/12 05:15:56;;;;;;;22.40;11.05;;;;;;;;;;4971077;28;20050;-65
2023/09/12 05:18:23;;;;;;;27.30;13.77;;;;;;;;;;4960928;28;20058;-66
2023/09/12 05:20:50;;;;;;;17.17;10.10;;;;;;;;;;4967990;28;20058;-65
2023/09/12 05:23:18;;;;;;;18.33;9.85;;;;;;;;;;4985374;28;20050;-65
2023/09/12 05:25:45;;;;;;;19.40;11.05;;;;;;;;;;4969825;28;20081;-65
2023/09/12 05:28:15;;;;;;;18.45;10.07;;;;;;;;;;4982930;28;20058;-67
2023/09/12 05:30:42;;;;;;;31.77;10.57;;;;;;;;;;4997399;28;20054;-67
2023/09/12 05:33:09;;;;;;;20.08;10.85;;;;;;;;;;4977917;28;20093;-66
2023/09/12 05:35:37;;;;;;;24.13;11.68;;;;;;;;;;4974389;28;20112;-65
2023/09/12 05:38:04;;;;;;;24.65;12.77;;;;;;;;;;4983787;28;20112;-66
2023/09/12 05:40:31;;;;;;;27.27;12.38;;;;;;;;;;4977630;28;20153;-65
2023/09/12 05:42:58;;;;;;;27.55;13.40;;;;;;;;;;4984445;28;20156;-65
2023/09/12 05:45:26;;;;;;;30.65;14.25;;;;;;;;;;4979225;28;20050;-65
2023/09/12 05:47:53;;;;;;;31.25;14.57;;;;;;;;;;4999915;28;20093;-65
2023/09/12 05:50:19;;;;;;;41.03;18.80;;;;;;;;;;4978420;28;20058;-64
2023/09/12 05:52:46;;;;;;;31.33;16.58;;;;;;;;;;5000871;28;20137;-65
2023/09/12 05:55:13;;;;;;;27.48;14.88;;;;;;;;;;4982841;28;20050;-65
2023/09/12 05:57:39;;;;;;;35.53;17.15;;;;;;;;;;4998410;28;20058;-65
2023/09/12 06:00:11;;;;;;;34.00;16.23;;;;;;;;;;4981335;28;20050;-65
2023/09/12 06:02:40;;;;;;;34.15;16.23;;;;;;;;;;4962997;28;20054;-65
2023/09/12 06:05:09;;;;;;;33.53;15.73;;;;;;;;;;4975157;28;20146;-65
2023/09/12 06:07:43;;;;;;;33.45;15.75;;;;;;;;;;4971462;28;20077;-65
2023/09/12 06:10:11;;;;;;;46.03;21.58;;;;;;;;;;4981466;28;20062;-66
2023/09/12 06:12:39;;;;;;;39.83;18.38;;;;;;;;;;4989226;28;20065;-65
2023/09/12 06:15:06;;;;;;;50.13;21.27;;;;;;;;;;4998077;28;20160;-67
2023/09/12 06:17:33;;;;;;;36.47;17.98;;;;;;;;;;5004454;28;20058;-64
2023/09/12 06:20:03;;;;;;;37.00;17.45;;;;;;;;;;5002730;28;20061;-65
2023/09/12 06:22:30;;;;;;;39.80;17.60;;;;;;;;;;4997278;28;20111;-65
2023/09/12 06:24:56;;;;;;;38.75;17.48;;;;;;;;;;5000631;28;20126;-65
2023/09/12 06:27:24;;;;;;;35.55;17.08;;;;;;;;;;4993088;28;20061;-65
2023/09/12 06:30:11;;;;;;;45.38;17.45;;;;;;;;;;5001117;28;20054;-65
2023/09/12 06:32:41;;;;;;;34.72;17.95;;;;;;;;;;4980671;28;21503;-65
2023/09/12 06:35:16;;;;;;;46.55;20.25;;;;;;;;;;4991840;28;20147;-65
2023/09/12 06:37:52;;;;;;;42.83;18.63;;;;;;;;;;5008125;28;20073;-66
2023/09/12 06:40:18;;;;;;;40.88;18.83;;;;;;;;;;4976678;28;20050;-66
2023/09/12 06:42:45;;;;;;;62.17;27.10;;;;;;;;;;4983584;28;20073;-66
2023/09/12 06:45:14;;;;;;;64.55;26.65;;;;;;;;;;4974772;28;20108;-65
2023/09/12 06:47:41;;;;;;;76.93;35.08;;;;;;;;;;4999186;28;20058;-65
2023/09/12 06:50:10;;;;;;;53.15;23.95;;;;;;;;;;4981788;28;20050;-66
2023/09/12 06:52:38;;;;;;;46.72;20.38;;;;;;;;;;4980444;28;21309;-65
2023/09/12 06:55:07;;;;;;;42.53;20.33;;;;;;;;;;4969689;28;20116;-65
2023/09/12 06:57:33;;;;;;;43.00;20.38;;;;;;;;;;4983514;28;20090;-65
2023/09/12 07:00:00;;;;;;;51.15;20.58;;;;;;;;;;4982899;28;20080;-65
2023/09/12 07:02:27;;;;;;;49.15;19.23;;;;;;;;;;4977816;28;20062;-67
2023/09/12 07:04:58;;;;;;;46.35;20.65;;;;;;;;;;4969073;28;20153;-65
2023/09/12 07:07:25;;;;;;;45.97;19.15;;;;;;;;;;4999480;28;20057;-64
2023/09/12 07:09:53;;;;;;;44.75;20.55;;;;;;;;;;4983525;28;20054;-65
2023/09/12 07:12:20;;;;;;;48.70;20.60;;;;;;;;;;4984620;28;20081;-65
2023/09/12 07:14:46;;;;;;;47.67;19.92;;;;;;;;;;4980681;28;20054;-64
2023/09/12 07:17:13;;;;;;;57.78;25.25;;;;;;;;;;4983189;28;20125;-65
2023/09/12 07:19:40;;;;;;;49.65;21.17;;;;;;;;;;4982674;28;20101;-65
2023/09/12 07:22:06;;;;;;;43.20;19.98;;;;;;;;;;4981990;28;20062;-64
2023/09/12 07:24:33;;;;;;;53.60;21.55;;;;;;;;;;4990754;28;20077;-65
2023/09/12 07:27:01;;;;;;;44.50;20.15;;;;;;;;;;4982576;28;20086;-64
2023/09/12 07:29:28;;;;;;;43.47;20.23;;;;;;;;;;4980895;28;20090;-65
2023/09/12 07:31:55;;;;;;;50.58;19.95;;;;;;;;;;4979886;28;20054;-64
2023/09/12 07:34:23;;;;;;;55.72;20.65;;;;;;;;;;4971439;28;20097;-65
2023/09/12 07:36:51;;;;;;;52.88;20.42;;;;;;;;;;4983623;28;20058;-65
2023/09/12 07:39:17;;;;;;;45.67;18.45;;;;;;;;;;4968576;28;20077;-65
2023/09/12 07:41:44;;;;;;;44.63;19.88;;;;;;;;;;4975314;28;20085;-66
2023/09/12 07:44:15;;;;;;;42.22;19.65;;;;;;;;;;4974775;28;20054;-66
2023/09/12 07:46:41;;;;;;;48.88;19.35;;;;;;;;;;4963154;28;20062;-66
2023/09/12 07:49:09;;;;;;;49.80;20.20;;;;;;;;;;4964547;28;20054;-65
2023/09/12 07:51:36;;;;;;;44.97;21.20;;;;;;;;;;4965503;28;20046;-66
2023/09/12 07:54:03;;;;;;;45.22;19.02;;;;;;;;;;4959879;28;20092;-66
2023/09/12 07:56:29;;;;;;;48.10;19.50;;;;;;;;;;4958615;28;20074;-66
2023/09/12 07:58:58;;;;;;;49.28;20.80;;;;;;;;;;4964142;28;20136;-66
2023/09/12 08:01:27;;;;;;;48.17;19.60;;;;;;;;;;4968723;28;20148;-66
2023/09/12 08:03:54;;;;;;;43.80;21.38;;;;;;;;;;4948111;28;20189;-66
2023/09/12 08:06:23;;;;;;;46.08;19.60;;;;;;;;;;4976193;28;20046;-67
2023/09/12 08:08:50;;;;;;;42.33;19.63;;;;;;;;;;4985669;28;20080;-65
2023/09/12 08:11:16;;;;;;;44.95;19.95;;;;;;;;;;4985919;28;20085;-67
2023/09/12 08:13:43;;;;;;;55.17;24.80;;;;;;;;;;5003092;28;20084;-65
2023/09/12 08:16:10;;;;;;;50.95;23.90;;;;;;;;;;5000564;28;20058;-67
2023/09/12 08:18:39;;;;;;;49.63;19.15;;;;;;;;;;4981753;28;20121;-67
2023/09/12 08:21:05;;;;;;;;;;;;;;;;;;4988282;28;20188;-67
2023/09/12 08:23:34;;;;;;;45.08;18.17;;;;;;;;;;5003639;28;19937;-68
2023/09/12 08:26:01;;;;;;;45.80;18.63;;;;;;;;;;4969363;28;20054;-65
2023/09/12 08:28:31;;;;;;;48.08;18.92;;;;;;;;;;4957098;28;20058;-66
2023/09/12 08:30:58;;;;;;;43.13;18.95;;;;;;;;;;4968589;28;20213;-68
2023/09/12 08:33:25;;;;;;;41.50;19.40;;;;;;;;;;4984873;28;20058;-66
2023/09/12 08:35:53;;;;;;;47.40;19.95;;;;;;;;;;4949981;28;20050;-67
2023/09/12 08:38:23;;;;;;;44.88;19.67;;;;;;;;;;4973653;28;20125;-66
2023/09/12 08:40:50;;;;;;;48.35;20.10;;;;;;;;;;4968932;28;20054;-65
2023/09/12 08:43:17;;;;;;;46.10;20.63;;;;;;;;;;4993318;28;20096;-66
2023/09/12 08:45:45;;;;;;;48.20;20.30;;;;;;;;;;4973956;28;20138;-66
2023/09/12 08:48:15;;;;;;;45.25;18.85;;;;;;;;;;4976668;28;20120;-66
2023/09/12 08:50:42;;;;;;;46.63;19.30;;;;;;;;;;4967022;28;20133;-66
2023/09/12 08:53:13;;;;;;;36.03;17.60;;;;;;;;;;4985100;28;20058;-67
2023/09/12 08:55:40;;;;;;;36.85;16.20;;;;;;;;;;4955425;28;20048;-68
2023/09/12 08:58:07;;;;;;;35.85;16.30;;;;;;;;;;4986018;28;20096;-67
2023/09/12 09:00:35;;;;;;;37.78;15.63;;;;;;;;;;4967289;28;20149;-69
2023/09/12 09:03:03;;;;;;;37.50;16.95;;;;;;;;;;4999374;28;20061;-67
2023/09/12 09:05:32;;;;;;;31.25;14.43;;;;;;;;;;4959561;28;20035;-67
2023/09/12 09:08:00;;;;;;;29.60;13.65;;;;;;;;;;4966942;28;20124;-68
2023/09/12 09:10:32;;;;;;;27.38;13.02;;;;;;;;;;4959789;28;20061;-66
2023/09/12 09:12:58;;;;;;;32.75;13.40;;;;;;;;;;4994856;28;20057;-66
2023/09/12 09:15:27;;;;;;;28.85;13.60;;;;;;;;;;4998297;28;20096;-66
2023/09/12 09:17:55;;;;;;;25.98;11.45;;;;;;;;;;4999939;28;20066;-68
2023/09/12 09:20:27;;;;;;;23.98;11.38;;;;;;;;;;4974984;28;20097;-68
2023/09/12 09:23:01;;;;;;;22.05;10.95;;;;;;;;;;4983653;28;20059;-68
2023/09/12 09:25:31;;;;;;;26.95;10.15;;;;;;;;;;4980258;28;20054;-66
2023/09/12 09:27:58;;;;;;;24.67;11.60;;;;;;;;;;4968334;28;20133;-66
2023/09/12 09:30:41;;;;;;;23.17;9.13;;;;;;;;;;4992524;28;20185;-65
2023/09/12 09:33:08;;;;;;;21.20;9.25;;;;;;;;;;4996949;28;20058;-67
2023/09/12 09:35:36;;;;;;;20.35;10.13;;;;;;;;;;4914957;28;20058;-67
2023/09/12 09:38:04;;;;;;;19.42;9.77;;;;;;;;;;4950322;28;20043;-68
2023/09/12 09:40:33;;;;;;;24.88;11.75;;;;;;;;;;4976027;28;20157;-68
2023/09/12 09:43:01;;;;;;;28.63;13.68;;;;;;;;;;4985384;28;20058;-67
2023/09/12 09:45:29;;;;;;;23.20;9.38;;;;;;;;;;4978402;28;20054;-67
2023/09/12 09:47:59;;;;;;;20.02;8.15;;;;;;;;;;4987297;28;20093;-66
2023/09/12 09:50:26;;;;;;;25.60;10.05;;;;;;;;;;4974317;28;20127;-66
2023/09/12 09:52:58;;;;;;;22.15;9.45;;;;;;;;;;4970750;28;20070;-67
2023/09/12 09:55:25;;;;;;;27.13;9.98;;;;;;;;;;4959438;28;20051;-66
2023/09/12 09:57:54;;;;;;;24.92;9.23;;;;;;;;;;4967938;28;20062;-67
2023/09/12 10:00:23;;;;;;;21.83;9.57;;;;;;;;;;4980679;28;20057;-66
2023/09/12 10:02:51;;;;;;;25.13;10.45;;;;;;;;;;4985065;28;20109;-67
2023/09/12 10:05:18;;;;;;;;;;;;;;;;;;4991537;28;20061;-66
2023/09/12 10:07:48;;;;;;;27.42;10.27;;;;;;;;;;5001339;28;19929;-66
2023/09/12 10:10:15;;;;;;;25.15;11.80;;;;;;;;;;4983093;28;20108;-67
2023/09/12 10:12:49;;;;;;;25.00;10.70;;;;;;;;;;4990291;28;20120;-67
2023/09/12 10:15:20;;;;;;;28.50;11.13;;;;;;;;;;4962518;28;20305;-66
2023/09/12 10:17:50;;;;;;;27.65;11.95;;;;;;;;;;4966918;28;20054;-66
2023/09/12 10:20:21;;;;;;;26.45;11.15;;;;;;;;;;4960472;28;20062;-65
2023/09/12 10:22:54;;;;;;;28.50;12.90;;;;;;;;;;4962866;28;20070;-66
2023/09/12 10:25:22;;;;;;;34.58;13.35;;;;;;;;;;4950593;28;20062;-66
2023/09/12 10:27:50;;;;;;;23.55;11.63;;;;;;;;;;4946714;28;20051;-67
2023/09/12 10:30:22;;;;;;;;;;;;;;;;;;4966053;28;20074;-67
2023/09/12 10:32:50;;;;;;;21.88;10.20;;;;;;;;;;4989530;28;20012;-66
2023/09/12 10:35:18;;;;;;;27.92;11.02;;;;;;;;;;4985048;28;20050;-66
2023/09/12 10:37:46;;;;;;;30.08;13.23;;;;;;;;;;4982480;28;20125;-65
2023/09/12 10:40:14;;;;;;;31.25;11.30;;;;;;;;;;4975800;28;20062;-65
2023/09/12 10:42:43;;;;;;;23.33;11.00;;;;;;;;;;4982762;28;20046;-65
2023/09/12 10:45:11;;;;;;;23.80;10.95;;;;;;;;;;4969495;28;20062;-66
2023/09/12 10:47:39;;;;;;;33.05;13.32;;;;;;;;;;4964416;28;20067;-66
2023/09/12 10:50:10;;;;;;;32.28;15.45;;;;;;;;;;4981138;28;20177;-67
2023/09/12 10:52:39;;;;;;;30.75;13.38;;;;;;;;;;4979364;28;20066;-66
2023/09/12 10:55:07;;;;;;;28.88;12.45;;;;;;;;;;4960243;28;20090;-66
2023/09/12 10:57:34;;;;;;;23.73;11.50;;;;;;;;;;5000673;28;20133;-66
2023/09/12 11:00:19;;;;;;;28.70;11.93;;;;;;;;;;4982383;28;20066;-66
2023/09/12 11:02:47;;;;;;;25.27;10.73;;;;;;;;;;4980677;28;20057;-66
2023/09/12 11:05:38;;;;;;;26.75;10.45;;;;;;;;;;4978843;28;20061;-66
2023/09/12 11:08:05;;;;;;;31.48;15.00;;;;;;;;;;4982444;28;20046;-66
2023/09/12 11:10:32;;;;;;;31.17;13.35;;;;;;;;;;4975175;28;20066;-66
2023/09/12 11:12:59;;;;;;;28.23;13.00;;;;;;;;;;4981540;28;20077;-66
2023/09/12 11:15:31;;;;;;;35.22;17.27;;;;;;;;;;4959770;28;20065;-66
2023/09/12 11:18:04;;;;;;;24.15;12.13;;;;;;;;;;4980389;28;20120;-65
2023/09/12 11:20:52;;;;;;;30.10;11.77;;;;;;;;;;4974683;28;20208;-66
2023/09/12 11:23:19;;;;;;;28.45;12.10;;;;;;;;;;4983808;28;20054;-66
2023/09/12 11:25:46;;;;;;;32.05;14.35;;;;;;;;;;4971796;28;20088;-65
2023/09/12 11:28:12;;;;;;;26.13;11.30;;;;;;;;;;4981374;28;20101;-66
2023/09/12 11:30:57;;;;;;;24.13;11.25;;;;;;;;;;4982186;28;20129;-65
2023/09/12 11:33:28;;;;;;;21.92;9.98;;;;;;;;;;4999039;28;20089;-66
2023/09/12 11:35:57;;;;;;;23.65;12.00;;;;;;;;;;4978260;28;20148;-65
2023/09/12 11:38:28;;;;;;;35.33;12.88;;;;;;;;;;4974753;28;20058;-67
2023/09/12 11:40:56;;;;;;;32.08;13.02;;;;;;;;;;4986584;28;20058;-65
2023/09/12 11:43:31;;;;;;;25.27;11.93;;;;;;;;;;5000799;28;20057;-66
2023/09/12 11:45:58;;;;;;;28.00;11.88;;;;;;;;;;4977984;28;20128;-66
2023/09/12 11:48:25;;;;;;;27.63;12.13;;;;;;;;;;4973105;28;20065;-66
2023/09/12 11:50:55;;;;;;;33.83;13.20;;;;;;;;;;4998249;28;20058;-66
2023/09/12 11:53:25;;;;;;;26.17;12.70;;;;;;;;;;4982412;28;20073;-66
2023/09/12 11:55:54;;;;;;;22.23;10.10;;;;;;;;;;5001837;28;20141;-65
2023/09/12 11:58:21;;;;;;;23.33;10.60;;;;;;;;;;4975385;28;20066;-65
2023/09/12 12:00:49;;;;;;;24.63;11.05;;;;;;;;;;4978663;28;20081;-65
2023/09/12 12:03:17;;;;;;;26.48;10.90;;;;;;;;;;4962200;28;20069;-65
2023/09/12 12:05:44;;;;;;;24.23;11.13;;;;;;;;;;4976093;28;20054;-64
2023/09/12 12:08:12;;;;;;;32.47;11.07;;;;;;;;;;4979840;28;20058;-64
2023/09/12 12:10:39;;;;;;;23.70;12.20;;;;;;;;;;4978330;28;20058;-63
2023/09/12 12:13:06;;;;;;;23.13;10.93;;;;;;;;;;4983400;28;20063;-64
2023/09/12 12:15:33;;;;;;;21.13;9.00;;;;;;;;;;4994222;28;20109;-64
2023/09/12 12:18:00;;;;;;;17.63;8.93;;;;;;;;;;4986152;28;20065;-64
2023/09/12 12:20:27;;;;;;;17.50;8.25;;;;;;;;;;4974215;28;20058;-64
2023/09/12 12:22:54;;;;;;;13.68;6.82;;;;;;;;;;4983382;28;20128;-64
2023/09/12 12:25:24;;;;;;;16.90;7.60;;;;;;;;;;4971821;28;20054;-66
2023/09/12 12:27:50;;;;;;;24.60;10.25;;;;;;;;;;4999127;28;20090;-65
2023/09/12 12:30:20;;;;;;;19.10;8.93;;;;;;;;;;4979843;28;20066;-64
2023/09/12 12:32:49;;;;;;;20.90;8.48;;;;;;;;;;4981371;28;20097;-65
2023/09/12 12:35:20;;;;;;;15.65;7.50;;;;;;;;;;4978428;28;20116;-64
2023/09/12 12:37:48;;;;;;;17.42;7.20;;;;;;;;;;4998693;28;20054;-64
2023/09/12 12:40:16;;;;;;;15.27;6.30;;;;;;;;;;4977700;28;20058;-64
2023/09/12 12:42:46;;;;;;;14.55;6.28;;;;;;;;;;4980923;28;20113;-65
2023/09/12 12:45:13;;;;;;;16.73;6.32;;;;;;;;;;4991221;28;20059;-65
2023/09/12 12:47:44;;;;;;;17.88;7.18;;;;;;;;;;4963688;28;20069;-63
2023/09/12 12:50:14;;;;;;;12.65;5.90;;;;;;;;;;4974016;28;20050;-64
2023/09/12 12:52:42;;;;;;;15.65;5.85;;;;;;;;;;4985919;28;20055;-66
2023/09/12 12:55:10;;;;;;;;;;;;;;;;;;4968264;28;20064;-64
2023/09/12 12:57:37;;;;;;;;;;;;;;;;;;4995516;28;19926;-65
2023/09/12 13:00:13;;;;;;;12.18;4.72;;;;;;;;;;4987857;28;19982;-64
2023/09/12 13:02:40;;;;;;;17.35;5.05;;;;;;;;;;4984782;28;20141;-65
2023/09/12 13:05:21;;;;;;;10.02;4.30;;;;;;;;;;4954865;28;20046;-65
2023/09/12 13:07:48;;;;;;;11.05;4.00;;;;;;;;;;4985549;28;20061;-65
2023/09/12 13:10:14;;;;;;;10.23;4.13;;;;;;;;;;4984504;28;20104;-66
2023/09/12 13:12:41;;;;;;;12.48;4.55;;;;;;;;;;4993110;28;20054;-63
2023/09/12 13:15:10;;;;;;;10.18;4.70;;;;;;;;;;4934916;28;20094;-65
2023/09/12 13:17:37;;;;;;;10.25;5.10;;;;;;;;;;4964533;28;20086;-65
2023/09/12 13:20:09;;;;;;;11.35;4.65;;;;;;;;;;4974065;28;20046;-63
2023/09/12 13:22:36;;;;;;;11.40;4.43;;;;;;;;;;4964715;28;20063;-64
2023/09/12 13:25:03;;;;;;;9.75;4.00;;;;;;;;;;4956641;28;20057;-64
2023/09/12 13:27:31;;;;;;;10.48;3.00;;;;;;;;;;4999080;28;20058;-63
2023/09/12 13:29:58;;;;;;;13.75;3.33;;;;;;;;;;4989461;28;20050;-63
2023/09/12 13:32:27;;;;;;;6.78;3.13;;;;;;;;;;4978677;28;20054;-64
2023/09/12 13:34:54;;;;;;;7.22;2.97;;;;;;;;;;4965223;28;20057;-63
2023/09/12 13:37:21;;;;;;;5.93;2.40;;;;;;;;;;4986352;28;20054;-64
2023/09/12 13:39:49;;;;;;;9.50;2.60;;;;;;;;;;4987825;28;20058;-62
2023/09/12 13:42:19;;;;;;;8.38;2.65;;;;;;;;;;4981772;28;20081;-63
2023/09/12 13:44:48;;;;;;;6.55;2.90;;;;;;;;;;4981391;28;20054;-63
2023/09/12 13:47:21;;;;;;;8.23;3.90;;;;;;;;;;4987319;28;20120;-64
2023/09/12 13:49:52;;;;;;;9.95;4.00;;;;;;;;;;4985088;28;20050;-65
2023/09/12 13:52:20;;;;;;;10.98;4.22;;;;;;;;;;4978882;28;20202;-65
2023/09/12 13:54:49;;;;;;;10.52;4.22;;;;;;;;;;4965831;28;20093;-65
2023/09/12 13:57:16;;;;;;;9.05;4.05;;;;;;;;;;4983951;28;20058;-65
2023/09/12 13:59:43;;;;;;;9.77;3.67;;;;;;;;;;4985615;28;20065;-64
2023/09/12 14:02:12;;;;;;;9.15;3.88;;;;;;;;;;4985519;28;20062;-66
2023/09/12 14:04:39;;;;;;;13.48;5.57;;;;;;;;;;4968113;28;20062;-65
2023/09/12 14:07:08;;;;;;;8.07;3.78;;;;;;;;;;5001672;28;20058;-65
2023/09/12 14:09:34;;;;;;;10.95;3.40;;;;;;;;;;4984170;28;20073;-65
2023/09/12 14:12:01;;;;;;;7.40;3.20;;;;;;;;;;4988662;28;20069;-65
2023/09/12 14:14:28;;;;;;;8.05;3.45;;;;;;;;;;4975778;28;20050;-65
2023/09/12 14:16:55;;;;;;;7.60;3.10;;;;;;;;;;4985005;28;20411;-65
2023/09/12 14:19:24;;;;;;;9.52;2.40;;;;;;;;;;4982500;28;20086;-65
2023/09/12 14:21:51;;;;;;;10.00;3.45;;;;;;;;;;4985578;28;20065;-63
2023/09/12 14:24:19;;;;;;;6.93;2.95;;;;;;;;;;4976151;28;20117;-64
2023/09/12 14:26:45;;;;;;;;;;;;;;;;;;4983339;28;20054;-64
2023/09/12 14:29:12;;;;;;;7.28;3.22;;;;;;;;;;5000778;28;19922;-65